createdAt,value
2024-04-08T00:00:08.271Z,2.01
2024-04-08T00:01:08.196Z,2.08
2024-04-08T00:02:08.210Z,2.51
2024-04-08T00:03:08.237Z,2.63
2024-04-08T00:04:08.256Z,2.90
2024-04-08T00:05:08.709Z,2.44
2024-04-08T00:06:08.213Z,3.02
2024-04-08T00:07:08.279Z,1.72
2024-04-08T00:08:08.258Z,3.10
2024-04-08T00:09:08.296Z,2.85
2024-04-08T00:10:08.338Z,2.66
2024-04-08T00:11:08.382Z,2.05
2024-04-08T00:12:08.414Z,2.11
2024-04-08T00:13:08.452Z,1.76
2024-04-08T00:14:08.492Z,2.39
2024-04-08T00:15:08.518Z,2.06
2024-04-08T00:16:08.577Z,2.27
2024-04-08T00:17:08.590Z,1.86
2024-04-08T00:18:08.637Z,2.62
2024-04-08T00:19:08.671Z,2.41
2024-04-08T00:20:08.720Z,2.18
2024-04-08T00:21:08.753Z,2.95
2024-04-08T00:22:08.785Z,1.85
2024-04-08T00:23:09.760Z,2.32
2024-04-08T00:24:08.868Z,2.03
2024-04-08T00:25:08.904Z,2.08
2024-04-08T00:26:08.960Z,2.11
2024-04-08T00:27:08.996Z,2.59
2024-04-08T00:28:09.016Z,2.07
2024-04-08T00:29:09.058Z,2.54
2024-04-08T00:30:09.092Z,2.61
2024-04-08T00:31:09.230Z,2.27
2024-04-08T00:32:09.158Z,1.98
2024-04-08T00:33:09.206Z,2.76
2024-04-08T00:34:09.247Z,1.98
2024-04-08T00:35:09.287Z,2.59
2024-04-08T00:36:09.328Z,2.87
2024-04-08T00:37:09.357Z,4.21
2024-04-08T00:38:09.391Z,1.98
2024-04-08T00:39:10.206Z,3.12
2024-04-08T00:40:09.482Z,2.57
2024-04-08T00:41:09.517Z,2.49
2024-04-08T00:42:09.563Z,3.01
2024-04-08T00:43:09.602Z,2.76
2024-04-08T00:44:09.639Z,2.31
2024-04-08T00:45:09.683Z,2.15
2024-04-08T00:46:09.737Z,2.09
2024-04-08T00:47:09.775Z,2.40
2024-04-08T00:48:09.810Z,2.57
2024-04-08T00:49:09.861Z,1.61
2024-04-08T00:50:09.952Z,2.13
2024-04-08T00:51:09.913Z,2.44
2024-04-08T00:52:09.967Z,2.30
2024-04-08T00:53:10.003Z,1.93
2024-04-08T00:54:10.037Z,2.07
2024-04-08T00:55:10.072Z,2.27
2024-04-08T00:56:10.111Z,1.99
2024-04-08T00:57:10.152Z,2.46
2024-04-08T00:58:10.196Z,2.41
2024-04-08T00:59:10.242Z,2.46
2024-04-08T01:00:10.272Z,2.29
2024-04-08T01:01:10.295Z,2.48
2024-04-08T01:02:10.342Z,2.25
2024-04-08T01:03:10.389Z,2.32
2024-04-08T01:04:10.427Z,2.29
2024-04-08T01:05:10.464Z,2.14
2024-04-08T01:06:10.491Z,2.18
2024-04-08T01:07:10.547Z,2.28
2024-04-08T01:08:10.573Z,2.54
2024-04-08T01:09:10.685Z,2.23
2024-04-08T01:10:10.656Z,2.51
2024-04-08T01:11:10.735Z,2.20
2024-04-08T01:12:10.721Z,2.28
2024-04-08T01:13:10.773Z,1.75
2024-04-08T01:14:10.811Z,2.41
2024-04-08T01:15:10.852Z,2.78
2024-04-08T01:16:10.892Z,1.72
2024-04-08T01:17:10.927Z,2.17
2024-04-08T01:18:11.050Z,2.58
2024-04-08T01:19:10.996Z,1.87
2024-04-08T01:20:11.250Z,2.30
2024-04-08T01:21:11.727Z,2.62
2024-04-08T01:22:11.124Z,2.56
2024-04-08T01:23:11.188Z,1.85
2024-04-08T01:24:11.177Z,2.46
2024-04-08T01:25:11.216Z,2.62
2024-04-08T01:26:11.256Z,2.16
2024-04-08T01:27:11.294Z,2.11
2024-04-08T01:28:11.323Z,2.16
2024-04-08T01:29:11.365Z,2.06
2024-04-08T01:30:11.417Z,2.07
2024-04-08T01:31:11.443Z,2.16
2024-04-08T01:32:11.509Z,2.18
2024-04-08T01:33:11.513Z,2.18
2024-04-08T01:34:11.574Z,2.19
2024-04-08T01:35:11.591Z,3.29
2024-04-08T01:36:11.639Z,1.96
2024-04-08T01:37:11.681Z,2.61
2024-04-08T01:38:11.798Z,2.36
2024-04-08T01:39:11.764Z,2.53
2024-04-08T01:40:11.802Z,3.59
2024-04-08T01:41:11.835Z,2.62
2024-04-08T01:42:11.870Z,2.23
2024-04-08T01:43:11.900Z,2.68
2024-04-08T01:44:11.936Z,2.12
2024-04-08T01:45:11.980Z,1.64
2024-04-08T01:46:12.392Z,2.91
2024-04-08T01:47:12.048Z,2.29
2024-04-08T01:48:12.082Z,2.28
2024-04-08T01:49:12.111Z,2.27
2024-04-08T01:50:12.162Z,2.10
2024-04-08T01:51:12.189Z,2.30
2024-04-08T01:52:12.264Z,2.34
2024-04-08T01:53:12.366Z,2.37
2024-04-08T01:54:12.275Z,2.64
2024-04-08T01:55:12.351Z,2.05
2024-04-08T01:56:12.364Z,2.32
2024-04-08T01:57:12.407Z,2.37
2024-04-08T01:58:12.407Z,3.14
2024-04-08T01:59:12.451Z,2.22
2024-04-08T02:00:12.512Z,2.26
2024-04-08T02:01:12.572Z,1.70
2024-04-08T02:02:12.579Z,2.42
2024-04-08T02:03:12.576Z,2.36
2024-04-08T02:04:12.623Z,1.92
2024-04-08T02:05:12.665Z,2.55
2024-04-08T02:06:12.709Z,2.46
2024-04-08T02:07:12.730Z,2.33
2024-04-08T02:08:12.772Z,1.81
2024-04-08T02:09:12.806Z,2.08
2024-04-08T02:10:12.842Z,2.10
2024-04-08T02:11:12.874Z,2.31
2024-04-08T02:12:12.897Z,1.88
2024-04-08T02:13:12.950Z,2.50
2024-04-08T02:14:13.034Z,2.41
2024-04-08T02:15:12.998Z,1.92
2024-04-08T02:16:13.094Z,3.67
2024-04-08T02:17:13.068Z,1.89
2024-04-08T02:18:13.253Z,2.08
2024-04-08T02:19:13.128Z,2.65
2024-04-08T02:20:13.146Z,1.91
2024-04-08T02:21:13.196Z,2.08
2024-04-08T02:22:13.210Z,2.06
2024-04-08T02:23:13.236Z,2.32
2024-04-08T02:24:13.350Z,2.68
2024-04-08T02:25:13.312Z,2.25
2024-04-08T02:26:13.327Z,2.10
2024-04-08T02:27:13.345Z,2.31
2024-04-08T02:28:13.397Z,2.86
2024-04-08T02:29:13.419Z,4.65
2024-04-08T02:30:13.451Z,2.20
2024-04-08T02:31:13.503Z,2.19
2024-04-08T02:32:13.536Z,2.55
2024-04-08T02:33:13.560Z,2.01
2024-04-08T02:34:13.596Z,2.22
2024-04-08T02:35:13.623Z,2.67
2024-04-08T02:36:13.674Z,2.10
2024-04-08T02:37:13.783Z,2.18
2024-04-08T02:38:13.789Z,2.56
2024-04-08T02:39:13.759Z,2.29
2024-04-08T02:40:13.800Z,2.22
2024-04-08T02:41:13.850Z,3.07
2024-04-08T02:42:13.886Z,2.13
2024-04-08T02:43:13.926Z,1.97
2024-04-08T02:44:13.944Z,2.65
2024-04-08T02:45:14.004Z,2.29
2024-04-08T02:46:14.020Z,2.15
2024-04-08T02:47:14.054Z,2.09
2024-04-08T02:48:14.084Z,2.24
2024-04-08T02:49:14.127Z,2.75
2024-04-08T02:50:14.170Z,1.89
2024-04-08T02:51:14.201Z,2.04
2024-04-08T02:52:14.324Z,3.15
2024-04-08T02:53:14.273Z,2.23
2024-04-08T02:54:14.313Z,2.45
2024-04-08T02:55:14.337Z,2.97
2024-04-08T02:56:14.447Z,2.96
2024-04-08T02:57:14.410Z,2.54
2024-04-08T02:58:14.457Z,2.80
2024-04-08T02:59:14.498Z,2.17
2024-04-08T03:00:14.528Z,2.13
2024-04-08T03:01:14.543Z,2.83
2024-04-08T03:02:14.588Z,2.05
2024-04-08T03:03:15.351Z,1.92
2024-04-08T03:04:14.654Z,2.18
2024-04-08T03:05:14.771Z,2.03
2024-04-08T03:06:14.723Z,1.93
2024-04-08T03:07:14.754Z,1.70
2024-04-08T03:08:14.784Z,2.21
2024-04-08T03:09:14.820Z,2.25
2024-04-08T03:10:14.857Z,2.07
2024-04-08T03:11:14.894Z,2.17
2024-04-08T03:12:14.921Z,2.69
2024-04-08T03:13:14.964Z,3.10
2024-04-08T03:14:15.765Z,3.04
2024-04-08T03:15:15.042Z,2.55
2024-04-08T03:16:15.060Z,1.59
2024-04-08T03:17:15.099Z,2.41
2024-04-08T03:18:15.164Z,2.02
2024-04-08T03:19:15.195Z,3.43
2024-04-08T03:20:15.200Z,2.58
2024-04-08T03:21:15.253Z,2.85
2024-04-08T03:22:15.279Z,2.43
2024-04-08T03:23:15.322Z,2.23
2024-04-08T03:24:15.350Z,2.64
2024-04-08T03:25:15.399Z,2.16
2024-04-08T03:26:15.428Z,2.84
2024-04-08T03:27:15.466Z,1.95
2024-04-08T03:28:15.510Z,1.47
2024-04-08T03:29:15.529Z,2.02
2024-04-08T03:30:15.580Z,1.86
2024-04-08T03:31:15.615Z,2.35
2024-04-08T03:32:15.634Z,2.71
2024-04-08T03:33:15.704Z,2.07
2024-04-08T03:34:15.700Z,1.87
2024-04-08T03:35:15.746Z,2.08
2024-04-08T03:36:15.775Z,1.87
2024-04-08T03:37:15.801Z,2.63
2024-04-08T03:38:15.838Z,2.02
2024-04-08T03:39:15.868Z,2.35
2024-04-08T03:40:15.902Z,3.04
2024-04-08T03:41:15.949Z,2.24
2024-04-08T03:42:15.979Z,2.09
2024-04-08T03:43:17.281Z,1.87
2024-04-08T03:44:16.017Z,2.18
2024-04-08T03:45:16.013Z,3.10
2024-04-08T03:46:16.016Z,2.12
2024-04-08T03:47:16.012Z,2.28
2024-04-08T03:48:16.048Z,2.40
2024-04-08T03:49:16.081Z,2.58
2024-04-08T03:50:16.015Z,2.89
2024-04-08T03:51:16.029Z,1.85
2024-04-08T03:52:16.025Z,1.95
2024-04-08T03:53:16.013Z,2.23
2024-04-08T03:54:16.024Z,2.47
2024-04-08T03:55:16.022Z,2.41
2024-04-08T03:56:16.024Z,2.40
2024-04-08T03:57:16.024Z,2.79
2024-04-08T03:58:16.291Z,2.64
2024-04-08T03:59:16.025Z,1.90
2024-04-08T04:00:16.025Z,1.91
2024-04-08T04:01:16.019Z,3.08
2024-04-08T04:02:16.021Z,4.25
2024-04-08T04:03:16.031Z,4.60
2024-04-08T04:04:16.048Z,2.29
2024-04-08T04:05:16.094Z,1.78
2024-04-08T04:06:16.039Z,2.48
2024-04-08T04:07:16.024Z,2.45
2024-04-08T04:08:16.028Z,2.81
2024-04-08T04:09:16.028Z,1.83
2024-04-08T04:10:16.030Z,2.26
2024-04-08T04:11:16.098Z,2.14
2024-04-08T04:12:16.111Z,2.38
2024-04-08T04:13:16.044Z,2.30
2024-04-08T04:14:16.038Z,2.13
2024-04-08T04:15:16.044Z,2.26
2024-04-08T04:16:23.713Z,2.44
2024-04-08T04:17:23.864Z,2.12
2024-04-08T04:18:23.866Z,2.40
2024-04-08T04:19:23.763Z,2.58
2024-04-08T04:20:23.803Z,2.09
2024-04-08T04:21:24.355Z,2.37
2024-04-08T04:22:23.779Z,2.34
2024-04-08T04:23:23.770Z,2.56
2024-04-08T04:24:23.790Z,3.28
2024-04-08T04:25:23.791Z,2.31
2024-04-08T04:26:24.329Z,2.60
2024-04-08T04:27:23.777Z,2.19
2024-04-08T04:28:23.790Z,2.82
2024-04-08T04:29:23.799Z,2.60
2024-04-08T04:30:23.790Z,2.38
2024-04-08T04:31:30.968Z,3.71
2024-04-08T04:32:31.035Z,4.38
2024-04-08T04:33:31.094Z,2.64
2024-04-08T04:34:31.102Z,2.55
2024-04-08T04:35:31.099Z,2.70
2024-04-08T04:36:31.095Z,2.60
2024-04-08T04:37:31.117Z,2.83
2024-04-08T04:38:31.109Z,2.49
2024-04-08T04:39:31.182Z,2.75
2024-04-08T04:40:31.104Z,2.59
2024-04-08T04:41:31.109Z,2.52
2024-04-08T04:42:31.099Z,1.87
2024-04-08T04:43:31.118Z,2.52
2024-04-08T04:44:31.090Z,2.24
2024-04-08T04:45:31.109Z,1.93
2024-04-08T04:46:31.104Z,3.27
2024-04-08T04:47:31.150Z,2.25
2024-04-08T04:48:31.107Z,2.29
2024-04-08T04:49:31.105Z,3.78
2024-04-08T04:50:31.107Z,2.19
2024-04-08T04:51:31.118Z,2.30
2024-04-08T04:52:31.095Z,2.95
2024-04-08T04:53:31.098Z,3.26
2024-04-08T04:54:33.389Z,2.38
2024-04-08T04:55:31.290Z,2.55
2024-04-08T04:56:32.094Z,2.64
2024-04-08T04:57:31.368Z,3.75
2024-04-08T04:58:31.416Z,2.79
2024-04-08T04:59:31.452Z,2.65
2024-04-08T05:00:31.660Z,2.41
2024-04-08T05:01:31.535Z,2.67
2024-04-08T05:02:31.572Z,3.25
2024-04-08T05:03:31.624Z,3.10
2024-04-08T05:04:31.707Z,2.40
2024-04-08T05:05:31.714Z,1.89
2024-04-08T05:06:31.753Z,2.77
2024-04-08T05:07:31.850Z,2.16
2024-04-08T05:08:31.834Z,3.53
2024-04-08T05:09:31.860Z,2.74
2024-04-08T05:10:31.908Z,2.92
2024-04-08T05:11:31.943Z,2.75
2024-04-08T05:12:31.982Z,2.72
2024-04-08T05:13:32.116Z,1.81
2024-04-08T05:14:32.067Z,2.89
2024-04-08T05:15:32.124Z,2.80
2024-04-08T05:16:32.170Z,2.30
2024-04-08T05:17:32.232Z,2.91
2024-04-08T05:18:32.238Z,2.88
2024-04-08T05:19:32.279Z,2.89
2024-04-08T05:20:32.340Z,2.68
2024-04-08T05:21:32.431Z,2.30
2024-04-08T05:22:32.404Z,4.19
2024-04-08T05:23:32.446Z,3.93
2024-04-08T05:24:32.492Z,4.13
2024-04-08T05:25:32.529Z,3.79
2024-04-08T05:26:32.579Z,3.65
2024-04-08T05:27:32.587Z,4.55
2024-04-08T05:28:32.597Z,5.52
2024-04-08T05:29:34.235Z,7.87
2024-04-08T05:30:32.631Z,4.51
2024-04-08T05:31:32.626Z,5.04
2024-04-08T05:32:32.635Z,5.19
2024-04-08T05:33:32.636Z,5.30
2024-04-08T05:34:32.634Z,6.29
2024-04-08T05:35:32.625Z,4.95
2024-04-08T05:36:35.062Z,6.83
2024-04-08T05:37:33.042Z,5.91
2024-04-08T05:38:32.846Z,6.07
2024-04-08T05:39:32.945Z,6.27
2024-04-08T05:40:33.112Z,7.27
2024-04-08T05:41:33.018Z,6.28
2024-04-08T05:42:33.076Z,5.85
2024-04-08T05:43:34.105Z,8.84
2024-04-08T05:44:34.118Z,5.70
2024-04-08T05:45:33.264Z,8.40
2024-04-08T05:46:33.388Z,6.30
2024-04-08T05:47:33.439Z,5.81
2024-04-08T05:48:33.455Z,5.32
2024-04-08T05:49:33.514Z,6.26
2024-04-08T05:50:33.586Z,6.76
2024-04-08T05:51:33.684Z,8.61
2024-04-08T05:52:33.739Z,6.32
2024-04-08T05:53:33.737Z,6.89
2024-04-08T05:54:33.803Z,7.14
2024-04-08T05:55:33.866Z,6.89
2024-04-08T05:56:33.966Z,6.45
2024-04-08T05:57:33.971Z,6.25
2024-04-08T05:58:34.031Z,9.12
2024-04-08T05:59:34.093Z,7.87
2024-04-08T06:00:35.135Z,10.38
2024-04-08T06:01:34.201Z,7.06
2024-04-08T06:02:34.268Z,9.92
2024-04-08T06:03:34.336Z,8.12
2024-04-08T06:04:34.379Z,8.20
2024-04-08T06:05:34.440Z,8.02
2024-04-08T06:06:34.542Z,8.41
2024-04-08T06:07:34.548Z,6.85
2024-04-08T06:08:34.605Z,7.63
2024-04-08T06:09:34.651Z,6.64
2024-04-08T06:10:34.712Z,11.23
2024-04-08T06:11:34.795Z,8.44
2024-04-08T06:12:34.771Z,7.77
2024-04-08T06:13:34.802Z,7.58
2024-04-08T06:14:34.841Z,10.37
2024-04-08T06:15:34.902Z,12.28
2024-04-08T06:16:34.969Z,10.34
2024-04-08T06:17:35.036Z,10.70
2024-04-08T06:18:35.086Z,9.75
2024-04-08T06:19:35.199Z,8.88
2024-04-08T06:20:35.179Z,11.49
2024-04-08T06:21:35.204Z,12.65
2024-04-08T06:22:35.250Z,12.40
2024-04-08T06:23:35.333Z,19.41
2024-04-08T06:24:35.427Z,28.07
2024-04-08T06:25:35.476Z,31.22
2024-04-08T06:26:35.542Z,36.71
2024-04-08T06:27:35.582Z,43.66
2024-04-08T06:28:35.635Z,42.03
2024-04-08T06:29:35.768Z,35.33
2024-04-08T06:30:35.700Z,39.96
2024-04-08T06:31:36.619Z,34.42
2024-04-08T06:32:35.834Z,37.86
2024-04-08T06:33:35.763Z,36.70
2024-04-08T06:34:36.662Z,30.25
2024-04-08T06:35:35.902Z,32.67
2024-04-08T06:36:37.547Z,33.56
2024-04-08T06:37:35.923Z,34.54
2024-04-08T06:38:36.016Z,33.04
2024-04-08T06:39:36.048Z,34.11
2024-04-08T06:40:37.077Z,31.60
2024-04-08T06:41:36.647Z,32.61
2024-04-08T06:42:36.042Z,32.72
2024-04-08T06:43:36.042Z,25.98
2024-04-08T06:44:36.198Z,22.14
2024-04-08T06:45:36.062Z,23.98
2024-04-08T06:46:36.048Z,25.03
2024-04-08T06:47:36.134Z,27.62
2024-04-08T06:48:36.059Z,24.04
2024-04-08T06:49:36.628Z,23.53
2024-04-08T06:50:36.158Z,24.00
2024-04-08T06:51:36.192Z,19.88
2024-04-08T06:52:36.234Z,22.64
2024-04-08T06:53:36.416Z,23.37
2024-04-08T06:54:36.393Z,19.75
2024-04-08T06:55:36.429Z,21.69
2024-04-08T06:56:36.674Z,22.07
2024-04-08T06:57:36.542Z,21.37
2024-04-08T06:58:36.590Z,21.19
2024-04-08T06:59:36.718Z,22.19
2024-04-08T07:00:37.222Z,19.45
2024-04-08T07:01:36.796Z,18.12
2024-04-08T07:02:36.821Z,17.63
2024-04-08T07:03:36.810Z,20.75
2024-04-08T07:04:36.834Z,22.70
2024-04-08T07:05:36.886Z,20.78
2024-04-08T07:06:36.917Z,20.43
2024-04-08T07:07:36.960Z,20.32
2024-04-08T07:08:37.027Z,20.42
2024-04-08T07:09:37.007Z,18.76
2024-04-08T07:10:37.028Z,20.34
2024-04-08T07:11:37.652Z,16.48
2024-04-08T07:12:37.099Z,14.91
2024-04-08T07:13:38.054Z,14.34
2024-04-08T07:14:37.269Z,13.24
2024-04-08T07:15:37.802Z,12.42
2024-04-08T07:16:37.326Z,11.93
2024-04-08T07:17:37.558Z,11.32
2024-04-08T07:18:37.361Z,11.24
2024-04-08T07:19:37.517Z,10.52
2024-04-08T07:20:37.522Z,11.69
2024-04-08T07:21:37.552Z,10.66
2024-04-08T07:22:38.553Z,9.96
2024-04-08T07:23:37.655Z,8.95
2024-04-08T07:24:37.655Z,9.34
2024-04-08T07:25:38.710Z,9.26
2024-04-08T07:26:37.671Z,10.06
2024-04-08T07:27:37.651Z,9.09
2024-04-08T07:28:37.651Z,9.40
2024-04-08T07:29:37.678Z,9.79
2024-04-08T07:30:37.698Z,9.81
2024-04-08T07:31:37.690Z,9.83
2024-04-08T07:32:37.734Z,8.67
2024-04-08T07:33:37.654Z,11.54
2024-04-08T07:34:37.686Z,8.87
2024-04-08T07:35:37.780Z,9.93
2024-04-08T07:36:37.660Z,8.07
2024-04-08T07:37:37.688Z,8.15
2024-04-08T07:38:52.438Z,9.25
2024-04-08T07:39:40.657Z,9.62
2024-04-08T07:40:37.713Z,7.71
2024-04-08T07:41:37.714Z,8.50
2024-04-08T07:42:37.708Z,8.96
2024-04-08T07:43:38.569Z,7.38
2024-04-08T07:44:37.685Z,7.47
2024-04-08T07:45:38.652Z,8.85
2024-04-08T07:46:37.683Z,6.72
2024-04-08T07:47:37.729Z,8.10
2024-04-08T07:48:37.696Z,6.58
2024-04-08T07:49:37.713Z,6.22
2024-04-08T07:50:37.702Z,8.00
2024-04-08T07:51:37.762Z,7.88
2024-04-08T07:52:37.701Z,8.76
2024-04-08T07:53:38.198Z,8.41
2024-04-08T07:54:37.759Z,5.96
2024-04-08T07:55:39.162Z,6.66
2024-04-08T07:56:37.709Z,8.66
2024-04-08T07:57:37.714Z,7.66
2024-04-08T07:58:37.745Z,7.33
2024-04-08T07:59:38.677Z,8.07
2024-04-08T08:00:42.560Z,8.25
2024-04-08T08:01:38.710Z,8.36
2024-04-08T08:02:37.727Z,8.22
2024-04-08T08:03:37.718Z,6.95
2024-04-08T08:04:37.809Z,6.49
2024-04-08T08:05:37.717Z,7.86
2024-04-08T08:06:37.765Z,7.57
2024-04-08T08:07:37.711Z,6.46
2024-04-08T08:08:37.717Z,8.48
2024-04-08T08:09:37.712Z,6.30
2024-04-08T08:10:37.739Z,4.75
2024-04-08T08:11:37.773Z,5.48
2024-04-08T08:12:37.799Z,6.51
2024-04-08T08:13:37.916Z,7.12
2024-04-08T08:14:37.884Z,7.15
2024-04-08T08:15:37.921Z,6.14
2024-04-08T08:16:37.962Z,5.62
2024-04-08T08:17:38.037Z,6.86
2024-04-08T08:18:38.161Z,6.23
2024-04-08T08:19:38.112Z,6.13
2024-04-08T08:20:38.164Z,6.50
2024-04-08T08:21:38.200Z,7.58
2024-04-08T08:22:38.215Z,6.30
2024-04-08T08:23:38.274Z,6.08
2024-04-08T08:24:40.084Z,8.29
2024-04-08T08:25:38.356Z,7.76
2024-04-08T08:26:38.395Z,7.50
2024-04-08T08:27:38.429Z,6.49
2024-04-08T08:28:38.473Z,6.74
2024-04-08T08:29:38.532Z,6.44
2024-04-08T08:30:38.550Z,7.32
2024-04-08T08:31:38.652Z,5.49
2024-04-08T08:32:38.698Z,5.79
2024-04-08T08:33:38.690Z,5.37
2024-04-08T08:34:39.673Z,5.25
2024-04-08T08:35:38.811Z,5.80
2024-04-08T08:36:38.835Z,4.96
2024-04-08T08:37:40.900Z,6.26
2024-04-08T08:38:39.024Z,6.51
2024-04-08T08:39:38.902Z,5.35
2024-04-08T08:40:38.897Z,5.70
2024-04-08T08:41:38.997Z,7.08
2024-04-08T08:42:38.983Z,4.95
2024-04-08T08:43:38.888Z,5.64
2024-04-08T08:44:38.956Z,5.87
2024-04-08T08:45:38.895Z,6.83
2024-04-08T08:46:38.933Z,6.29
2024-04-08T08:47:38.975Z,4.62
2024-04-08T08:48:38.934Z,6.46
2024-04-08T08:49:38.905Z,7.26
2024-04-08T08:50:38.903Z,5.75
2024-04-08T08:51:38.906Z,6.65
2024-04-08T08:52:38.906Z,5.89
2024-04-08T08:53:38.915Z,5.84
2024-04-08T08:54:38.914Z,6.24
2024-04-08T08:55:38.960Z,6.54
2024-04-08T08:56:38.921Z,4.78
2024-04-08T08:57:38.938Z,5.61
2024-04-08T08:58:38.909Z,5.84
2024-04-08T08:59:38.917Z,5.34
2024-04-08T09:00:38.997Z,6.44
2024-04-08T09:01:38.919Z,6.50
2024-04-08T09:02:38.997Z,5.03
2024-04-08T09:03:38.918Z,4.68
2024-04-08T09:04:38.923Z,5.11
2024-04-08T09:05:38.916Z,5.73
2024-04-08T09:06:39.200Z,5.31
2024-04-08T09:07:39.051Z,5.39
2024-04-08T09:08:38.924Z,5.55
2024-04-08T09:09:38.940Z,4.88
2024-04-08T09:10:39.039Z,5.76
2024-04-08T09:11:39.805Z,5.11
2024-04-08T09:12:38.933Z,4.94
2024-04-08T09:13:38.941Z,6.26
2024-04-08T09:14:38.939Z,5.91
2024-04-08T09:15:39.607Z,5.50
2024-04-08T09:16:39.048Z,6.21
2024-04-08T09:17:39.288Z,5.43
2024-04-08T09:18:39.179Z,5.71
2024-04-08T09:19:39.245Z,4.84
2024-04-08T09:20:39.297Z,8.39
2024-04-08T09:21:41.701Z,6.06
2024-04-08T09:22:39.421Z,6.63
2024-04-08T09:23:39.487Z,8.29
2024-04-08T09:24:39.445Z,10.05
2024-04-08T09:25:39.464Z,9.34
2024-04-08T09:26:39.465Z,8.67
2024-04-08T09:27:40.245Z,9.72
2024-04-08T09:28:39.505Z,8.09
2024-04-08T09:29:39.550Z,10.52
2024-04-08T09:30:39.625Z,9.08
2024-04-08T09:31:39.769Z,10.33
2024-04-08T09:32:39.749Z,10.80
2024-04-08T09:33:39.885Z,8.42
2024-04-08T09:34:39.869Z,10.46
2024-04-08T09:35:40.830Z,10.46
2024-04-08T09:36:39.973Z,8.74
2024-04-08T09:37:40.013Z,10.21
2024-04-08T09:38:40.067Z,7.23
2024-04-08T09:39:40.118Z,8.56
2024-04-08T09:40:40.117Z,10.21
2024-04-08T09:41:40.182Z,10.63
2024-04-08T09:42:40.190Z,9.53
2024-04-08T09:43:40.269Z,8.74
2024-04-08T09:44:40.291Z,10.11
2024-04-08T09:45:40.293Z,10.07
2024-04-08T09:46:40.387Z,9.67
2024-04-08T09:47:40.413Z,11.27
2024-04-08T09:48:40.372Z,10.54
2024-04-08T09:49:47.900Z,9.08
2024-04-08T09:50:41.428Z,8.92
2024-04-08T09:51:40.415Z,11.56
2024-04-08T09:52:40.417Z,7.88
2024-04-08T09:53:40.475Z,8.22
2024-04-08T09:54:40.406Z,9.96
2024-04-08T09:55:40.639Z,9.60
2024-04-08T09:56:40.507Z,11.30
2024-04-08T09:57:40.430Z,7.68
2024-04-08T09:58:40.421Z,8.99
2024-04-08T09:59:40.440Z,11.19
2024-04-08T10:00:40.434Z,9.06
2024-04-08T10:01:40.432Z,10.28
2024-04-08T10:02:40.441Z,9.54
2024-04-08T10:03:40.409Z,9.05
2024-04-08T10:04:40.416Z,7.76
2024-04-08T10:05:40.420Z,9.18
2024-04-08T10:06:40.427Z,9.40
2024-04-08T10:07:40.417Z,9.70
2024-04-08T10:08:40.408Z,9.42
2024-04-08T10:09:40.446Z,11.24
2024-04-08T10:10:40.410Z,11.68
2024-04-08T10:11:40.467Z,12.77
2024-04-08T10:12:40.518Z,11.36
2024-04-08T10:13:40.449Z,10.15
2024-04-08T10:14:40.433Z,10.95
2024-04-08T10:15:40.427Z,11.71
2024-04-08T10:16:40.425Z,14.63
2024-04-08T10:17:40.500Z,14.47
2024-04-08T10:18:40.466Z,15.11
2024-04-08T10:19:40.437Z,15.91
2024-04-08T10:20:40.448Z,16.22
2024-04-08T10:21:40.448Z,18.04
2024-04-08T10:22:40.432Z,18.47
2024-04-08T10:24:41.487Z,22.36
2024-04-08T10:25:40.497Z,20.27
2024-04-08T10:26:40.440Z,18.16
2024-04-08T10:27:40.460Z,21.12
2024-04-08T10:28:40.441Z,21.03
2024-04-08T10:29:41.211Z,17.59
2024-04-08T10:30:40.453Z,16.39
2024-04-08T10:31:40.444Z,18.53
2024-04-08T10:32:40.486Z,21.27
2024-04-08T10:33:40.571Z,24.73
2024-04-08T10:34:41.354Z,16.52
2024-04-08T10:35:40.444Z,20.33
2024-04-08T10:36:40.479Z,18.64
2024-04-08T10:37:40.445Z,17.27
2024-04-08T10:38:40.443Z,16.10
2024-04-08T10:39:40.541Z,14.92
2024-04-08T10:40:40.553Z,15.80
2024-04-08T10:41:40.680Z,16.26
2024-04-08T10:42:40.680Z,11.92
2024-04-08T10:43:40.813Z,10.26
2024-04-08T10:44:40.817Z,8.90
2024-04-08T10:45:41.804Z,11.41
2024-04-08T10:46:40.812Z,10.60
2024-04-08T10:47:40.858Z,9.38
2024-04-08T10:48:40.832Z,7.76
2024-04-08T10:49:40.817Z,7.82
2024-04-08T10:50:40.879Z,8.58
2024-04-08T10:51:41.030Z,8.80
2024-04-08T10:52:40.811Z,7.41
2024-04-08T10:53:41.782Z,7.41
2024-04-08T10:54:40.940Z,5.82
2024-04-08T10:55:41.006Z,7.72
2024-04-08T10:56:41.099Z,6.24
2024-04-08T10:57:41.141Z,8.01
2024-04-08T10:58:41.204Z,7.88
2024-04-08T10:59:41.298Z,8.38
2024-04-08T11:00:41.364Z,9.29
2024-04-08T11:01:41.396Z,8.30
2024-04-08T11:02:41.548Z,10.69
2024-04-08T11:03:41.502Z,9.78
2024-04-08T11:04:41.561Z,10.70
2024-04-08T11:05:41.511Z,9.36
2024-04-08T11:06:41.518Z,9.78
2024-04-08T11:07:44.316Z,10.32
2024-04-08T11:08:41.501Z,11.22
2024-04-08T11:09:42.225Z,9.98
2024-04-08T11:10:41.603Z,9.03
2024-04-08T11:11:41.517Z,9.95
2024-04-08T11:12:41.507Z,10.27
2024-04-08T11:13:42.234Z,11.31
2024-04-08T11:14:41.561Z,9.26
2024-04-08T11:15:41.561Z,7.98
2024-04-08T11:16:42.148Z,9.44
2024-04-08T11:17:41.516Z,9.99
2024-04-08T11:18:41.640Z,8.08
2024-04-08T11:19:41.522Z,10.54
2024-04-08T11:20:41.525Z,7.43
2024-04-08T11:21:41.518Z,12.49
2024-04-08T11:22:41.558Z,7.87
2024-04-08T11:23:41.523Z,7.48
2024-04-08T11:24:41.526Z,8.06
2024-04-08T11:25:41.531Z,6.74
2024-04-08T11:26:52.569Z,7.59
2024-04-08T11:27:42.594Z,6.93
2024-04-08T11:28:41.526Z,7.55
2024-04-08T11:29:41.529Z,7.16
2024-04-08T11:30:43.901Z,7.84
2024-04-08T11:31:41.670Z,6.36
2024-04-08T11:32:41.753Z,5.61
2024-04-08T11:33:41.930Z,6.26
2024-04-08T11:34:41.852Z,8.82
2024-04-08T11:35:41.903Z,6.50
2024-04-08T11:36:42.089Z,6.04
2024-04-08T11:37:45.338Z,7.00
2024-04-08T11:38:42.034Z,6.86
2024-04-08T11:39:42.088Z,5.96
2024-04-08T11:40:42.030Z,8.94
2024-04-08T11:41:42.056Z,9.45
2024-04-08T11:42:42.051Z,6.22
2024-04-08T11:43:42.399Z,5.03
2024-04-08T11:44:42.036Z,7.20
2024-04-08T11:45:42.242Z,6.65
2024-04-08T11:46:42.173Z,5.35
2024-04-08T11:47:42.050Z,7.56
2024-04-08T11:48:42.070Z,6.66
2024-04-08T11:49:43.282Z,6.89
2024-04-08T11:50:42.032Z,6.26
2024-04-08T11:51:42.255Z,5.61
2024-04-08T11:52:42.040Z,6.85
2024-04-08T11:53:42.048Z,6.73
2024-04-08T11:54:50.018Z,5.96
2024-04-08T11:55:43.058Z,8.10
2024-04-08T11:56:42.044Z,7.14
2024-04-08T11:57:42.296Z,7.36
2024-04-08T11:58:42.039Z,5.18
2024-04-08T11:59:42.045Z,4.73
2024-04-08T12:00:42.076Z,5.33
2024-04-08T12:01:44.348Z,6.87
2024-04-08T12:02:42.202Z,8.30
2024-04-08T12:03:42.194Z,5.33
2024-04-08T12:04:42.249Z,5.21
2024-04-08T12:05:42.305Z,4.92
2024-04-08T12:06:42.368Z,4.65
2024-04-08T12:07:43.582Z,4.96
2024-04-08T12:08:42.549Z,4.81
2024-04-08T12:09:42.510Z,5.32
2024-04-08T12:10:42.562Z,4.92
2024-04-08T12:11:42.735Z,5.28
2024-04-08T12:12:42.737Z,5.39
2024-04-08T12:13:44.090Z,4.46
2024-04-08T12:14:42.799Z,6.32
2024-04-08T12:15:45.756Z,5.04
2024-04-08T12:16:42.907Z,4.88
2024-04-08T12:17:43.784Z,5.11
2024-04-08T12:18:42.845Z,5.46
2024-04-08T12:19:45.625Z,4.85
2024-04-08T12:20:42.816Z,6.05
2024-04-08T12:21:42.813Z,7.05
2024-04-08T12:22:42.812Z,4.71
2024-04-08T12:23:42.819Z,5.31
2024-04-08T12:24:42.822Z,4.32
2024-04-08T12:25:42.817Z,5.80
2024-04-08T12:26:42.829Z,5.36
2024-04-08T12:27:42.822Z,4.97
2024-04-08T12:28:42.823Z,4.41
2024-04-08T12:29:42.825Z,4.41
2024-04-08T12:30:42.822Z,5.04
2024-04-08T12:31:42.831Z,4.10
2024-04-08T12:32:42.847Z,6.80
2024-04-08T12:33:42.918Z,5.47
2024-04-08T12:34:42.832Z,4.27
2024-04-08T12:35:42.837Z,5.58
2024-04-08T12:36:42.904Z,5.56
2024-04-08T12:37:43.731Z,4.04
2024-04-08T12:38:42.854Z,3.65
2024-04-08T12:39:42.857Z,5.52
2024-04-08T12:40:42.842Z,6.37
2024-04-08T12:41:42.846Z,5.73
2024-04-08T12:42:42.848Z,4.70
2024-04-08T12:43:50.716Z,4.66
2024-04-08T12:44:44.061Z,4.71
2024-04-08T12:45:43.031Z,4.83
2024-04-08T12:46:42.864Z,4.49
2024-04-08T12:47:43.023Z,4.75
2024-04-08T12:48:43.430Z,5.64
2024-04-08T12:49:42.866Z,3.66
2024-04-08T12:50:42.933Z,5.56
2024-04-08T12:51:45.937Z,3.54
2024-04-08T12:52:42.915Z,6.98
2024-04-08T12:53:42.991Z,4.84
2024-04-08T12:54:42.871Z,4.03
2024-04-08T12:55:42.891Z,4.61
2024-04-08T12:56:42.889Z,4.79
2024-04-08T12:57:44.846Z,4.70
2024-04-08T12:58:42.882Z,2.87
2024-04-08T12:59:42.874Z,4.88
2024-04-08T13:00:42.965Z,3.47
2024-04-08T13:01:42.902Z,4.80
2024-04-08T13:02:42.876Z,3.02
2024-04-08T13:03:43.802Z,5.77
2024-04-08T13:04:42.881Z,3.67
2024-04-08T13:05:42.898Z,4.00
2024-04-08T13:06:42.924Z,3.63
2024-04-08T13:07:45.655Z,2.57
2024-04-08T13:08:42.938Z,4.16
2024-04-08T13:09:42.942Z,4.30
2024-04-08T13:10:42.946Z,4.94
2024-04-08T13:11:43.288Z,4.01
2024-04-08T13:12:42.945Z,4.29
2024-04-08T13:13:44.938Z,3.96
2024-04-08T13:14:42.958Z,3.60
2024-04-08T13:15:43.009Z,6.19